createdAt,value
2023-02-27T00:01:57.115Z,-2.20
2023-02-27T00:04:20.744Z,-2.31
2023-02-27T00:06:44.300Z,-2.42
2023-02-27T00:09:08.431Z,-2.43
2023-02-27T00:11:33.372Z,-2.46
2023-02-27T00:13:57.340Z,-2.58
2023-02-27T00:16:20.996Z,-2.59
2023-02-27T00:18:44.652Z,-2.55
2023-02-27T00:21:08.198Z,-2.48
2023-02-27T00:23:31.928Z,-2.30
2023-02-27T00:25:55.814Z,-2.50
2023-02-27T00:28:20.757Z,-2.32
2023-02-27T00:30:44.325Z,-2.29
2023-02-27T00:33:09.044Z,-2.27
2023-02-27T00:35:33.100Z,-2.28
2023-02-27T00:37:56.759Z,-2.22
2023-02-27T00:40:20.652Z,-2.47
2023-02-27T00:42:46.264Z,-2.41
2023-02-27T00:45:12.489Z,-2.41
2023-02-27T00:47:36.958Z,-2.31
2023-02-27T00:50:00.571Z,-2.31
2023-02-27T00:52:24.232Z,-2.34
2023-02-27T00:54:48.909Z,-2.25
2023-02-27T00:57:12.536Z,-2.29
2023-02-27T00:59:37.406Z,-2.44
2023-02-27T01:02:02.377Z,-2.54
2023-02-27T01:04:26.212Z,-2.68
2023-02-27T01:06:50.195Z,-2.67
2023-02-27T01:09:13.948Z,-2.69
2023-02-27T01:11:37.565Z,-2.72
2023-02-27T01:14:01.273Z,-2.65
2023-02-27T01:16:25.528Z,-2.64
2023-02-27T01:18:50.920Z,-2.72
2023-02-27T01:21:14.520Z,-2.68
2023-02-27T01:23:38.058Z,-2.82
2023-02-27T01:26:01.704Z,-3.03
2023-02-27T01:28:25.398Z,-3.05
2023-02-27T01:30:49.350Z,-3.11
2023-02-27T01:33:12.977Z,-3.04
2023-02-27T01:35:38.356Z,-2.89
2023-02-27T01:38:02.763Z,-2.86
2023-02-27T01:40:26.473Z,-2.93
2023-02-27T01:42:50.038Z,-2.94
2023-02-27T01:45:31.854Z,-2.90
2023-02-27T01:48:03.959Z,-2.98
2023-02-27T01:50:30.120Z,-2.83
2023-02-27T01:53:01.486Z,-2.87
2023-02-27T01:55:28.451Z,-2.80
2023-02-27T01:57:53.165Z,-2.88
2023-02-27T02:00:18.453Z,-3.10
2023-02-27T02:02:51.046Z,-3.06
2023-02-27T02:05:16.395Z,-3.03
2023-02-27T02:07:41.702Z,-2.95
2023-02-27T02:10:07.978Z,-2.97
2023-02-27T02:12:36.264Z,-3.14
2023-02-27T02:14:59.856Z,-3.11
2023-02-27T02:17:40.147Z,-3.11
2023-02-27T02:20:55.530Z,-2.94
2023-02-27T02:23:55.628Z,-2.99
2023-02-27T02:26:50.429Z,-3.18
2023-02-27T02:30:11.906Z,-3.20
2023-02-27T02:33:21.105Z,-3.22
2023-02-27T02:36:39.282Z,-3.19
2023-02-27T02:39:39.147Z,-3.25
2023-02-27T02:42:06.885Z,-3.13
2023-02-27T02:44:45.884Z,-3.23
2023-02-27T02:47:24.029Z,-3.14
2023-02-27T02:49:57.917Z,-3.21
2023-02-27T02:52:30.591Z,-3.22
2023-02-27T02:54:59.546Z,-3.18
2023-02-27T02:57:30.612Z,-3.12
2023-02-27T03:00:02.527Z,-3.21
2023-02-27T03:02:31.550Z,-3.17
2023-02-27T03:05:00.702Z,-3.32
2023-02-27T03:07:31.841Z,-3.23
2023-02-27T03:10:02.301Z,-3.37
2023-02-27T03:12:28.878Z,-3.35
2023-02-27T03:14:59.875Z,-3.36
2023-02-27T03:17:30.927Z,-3.33
2023-02-27T03:19:58.565Z,-3.28
2023-02-27T03:22:26.871Z,-3.25
2023-02-27T03:24:55.170Z,-3.26
2023-02-27T03:27:22.013Z,-3.31
2023-02-27T03:29:54.748Z,-3.46
2023-02-27T03:32:24.599Z,-3.42
2023-02-27T03:34:49.189Z,-3.41
2023-02-27T03:37:27.803Z,-3.71
2023-02-27T03:39:55.685Z,-3.76
2023-02-27T03:42:31.091Z,-3.72
2023-02-27T03:45:09.794Z,-3.64
2023-02-27T03:47:34.792Z,-3.65
2023-02-27T03:49:58.855Z,-3.73
2023-02-27T03:52:25.019Z,-3.61
2023-02-27T03:54:56.712Z,-3.63
2023-02-27T03:57:20.508Z,-3.73
2023-02-27T03:59:45.942Z,-3.84
2023-02-27T04:02:09.999Z,-3.73
2023-02-27T04:04:35.697Z,-3.83
2023-02-27T04:07:25.604Z,-3.86
2023-02-27T04:10:20.309Z,-3.67
2023-02-27T04:13:04.760Z,-3.71
2023-02-27T04:15:42.509Z,-3.80
2023-02-27T04:18:20.396Z,-3.72
2023-02-27T04:20:46.483Z,-3.71
2023-02-27T04:23:15.185Z,-3.79
2023-02-27T04:25:51.402Z,-3.77
2023-02-27T04:28:19.715Z,-3.76
2023-02-27T04:30:57.314Z,-3.64
2023-02-27T04:33:34.500Z,-3.63
2023-02-27T04:36:05.901Z,-3.71
2023-02-27T04:38:36.623Z,-3.79
2023-02-27T04:41:05.637Z,-3.67
2023-02-27T04:43:30.765Z,-3.66
2023-02-27T04:45:58.565Z,-3.60
2023-02-27T04:48:26.512Z,-3.60
2023-02-27T04:50:56.494Z,-3.51
2023-02-27T04:53:25.685Z,-3.53
2023-02-27T04:55:52.168Z,-3.50
2023-02-27T04:58:20.197Z,-3.54
2023-02-27T05:00:49.530Z,-3.58
2023-02-27T05:03:19.353Z,-3.58
2023-02-27T05:05:45.427Z,-3.56
2023-02-27T05:08:15.687Z,-3.62
2023-02-27T05:10:45.193Z,-3.73
2023-02-27T05:13:14.383Z,-3.59
2023-02-27T05:15:41.690Z,-3.51
2023-02-27T05:18:08.834Z,-3.51
2023-02-27T05:20:44.415Z,-3.56
2023-02-27T05:23:16.012Z,-3.72
2023-02-27T05:25:57.124Z,-3.51
2023-02-27T05:28:25.290Z,-3.50
2023-02-27T05:30:59.270Z,-3.57
2023-02-27T05:33:28.276Z,-3.60
2023-02-27T05:35:58.719Z,-3.54
2023-02-27T05:38:26.951Z,-3.49
2023-02-27T05:40:56.848Z,-3.46
2023-02-27T05:43:26.237Z,-3.63
2023-02-27T05:45:53.952Z,-3.82
2023-02-27T05:48:22.327Z,-3.80
2023-02-27T05:50:48.383Z,-3.82
2023-02-27T05:53:17.479Z,-3.71
2023-02-27T05:55:45.563Z,-3.83
2023-02-27T05:58:17.633Z,-3.84
2023-02-27T06:00:46.686Z,-4.08
2023-02-27T06:03:11.000Z,-4.10
2023-02-27T06:05:35.176Z,-3.94
2023-02-27T06:07:58.754Z,-3.96
2023-02-27T06:10:24.887Z,-3.91
2023-02-27T06:12:48.476Z,-3.76
2023-02-27T06:15:13.605Z,-3.69
2023-02-27T06:17:37.126Z,-3.71
2023-02-27T06:20:00.704Z,-3.83
2023-02-27T06:22:24.363Z,-3.85
2023-02-27T06:24:47.964Z,-3.99
2023-02-27T06:27:12.939Z,-3.91
2023-02-27T06:29:36.549Z,-3.85
2023-02-27T06:32:00.209Z,-3.71
2023-02-27T06:34:24.014Z,-3.64
2023-02-27T06:36:48.668Z,-3.82
2023-02-27T06:39:12.270Z,-3.66
2023-02-27T06:41:35.805Z,-3.60
2023-02-27T06:44:00.796Z,-3.63
2023-02-27T06:46:24.566Z,-3.54
2023-02-27T06:48:48.577Z,-3.66
2023-02-27T06:51:12.095Z,-3.67
2023-02-27T06:53:35.697Z,-3.50
2023-02-27T06:55:59.319Z,-3.63
2023-02-27T06:58:24.791Z,-3.60
2023-02-27T07:00:49.817Z,-3.58
2023-02-27T07:03:14.901Z,-3.33
2023-02-27T07:05:38.424Z,-3.27
2023-02-27T07:08:03.280Z,-3.22
2023-02-27T07:10:26.937Z,-3.08
2023-02-27T07:12:50.508Z,-2.96
2023-02-27T07:15:14.127Z,-2.89
2023-02-27T07:17:39.310Z,-2.85
2023-02-27T07:20:02.986Z,-2.73
2023-02-27T07:22:26.650Z,-2.83
2023-02-27T07:24:50.256Z,-2.76
2023-02-27T07:27:13.824Z,-2.76
2023-02-27T07:29:37.368Z,-2.46
2023-02-27T07:32:01.550Z,-2.27
2023-02-27T07:34:26.675Z,-2.14
2023-02-27T07:36:50.290Z,-2.02
2023-02-27T07:39:14.820Z,-2.03
2023-02-27T07:41:38.377Z,-1.94
2023-02-27T07:44:02.074Z,-1.85
2023-02-27T07:46:27.655Z,-1.85
2023-02-27T07:48:51.607Z,-1.67
2023-02-27T07:51:16.570Z,-1.61
2023-02-27T07:53:40.079Z,-1.40
2023-02-27T07:56:03.645Z,-1.30
2023-02-27T07:58:27.229Z,-1.17
2023-02-27T08:00:50.787Z,-1.17
2023-02-27T08:03:14.310Z,-1.22
2023-02-27T08:05:37.990Z,-1.37
2023-02-27T08:08:03.231Z,-1.33
2023-02-27T08:10:26.870Z,-1.14
2023-02-27T08:12:50.424Z,-1.07
2023-02-27T08:15:14.202Z,-1.13
2023-02-27T08:17:37.752Z,-0.90
2023-02-27T08:20:01.420Z,-0.86
2023-02-27T08:22:24.960Z,-0.87
2023-02-27T08:24:49.900Z,-0.58
2023-02-27T08:27:13.473Z,-0.66
2023-02-27T08:29:37.234Z,-0.54
2023-02-27T08:32:00.828Z,-0.60
2023-02-27T08:34:25.642Z,-0.55
2023-02-27T08:36:49.305Z,-0.38
2023-02-27T08:39:13.033Z,-0.17
2023-02-27T08:41:38.401Z,-0.05
2023-02-27T08:44:02.146Z,0.02
2023-02-27T08:46:26.256Z,0.03
2023-02-27T08:48:50.167Z,0.08
2023-02-27T08:51:13.697Z,0.26
2023-02-27T08:53:37.272Z,0.22
2023-02-27T08:56:00.763Z,0.26
2023-02-27T08:58:25.722Z,0.29
2023-02-27T09:00:49.378Z,0.60
2023-02-27T09:03:12.983Z,0.81
2023-02-27T09:05:37.628Z,0.91
2023-02-27T09:08:01.196Z,0.66
2023-02-27T09:10:24.877Z,1.15
2023-02-27T09:12:49.373Z,1.02
2023-02-27T09:15:15.313Z,0.96
2023-02-27T09:17:38.985Z,1.45
2023-02-27T09:20:02.774Z,1.46
2023-02-27T09:22:26.690Z,1.88
2023-02-27T09:24:50.300Z,1.93
2023-02-27T09:27:14.166Z,1.88
2023-02-27T09:29:37.686Z,2.13
2023-02-27T09:32:02.749Z,2.19
2023-02-27T09:34:26.521Z,2.43
2023-02-27T09:36:50.143Z,2.45
2023-02-27T09:39:13.704Z,2.38
2023-02-27T09:42:00.121Z,2.33
2023-02-27T09:44:46.223Z,2.50
2023-02-27T09:47:21.641Z,2.46
2023-02-27T09:49:57.574Z,2.39
2023-02-27T09:52:21.225Z,2.67
2023-02-27T09:54:44.945Z,2.77
2023-02-27T09:57:17.706Z,2.68
2023-02-27T09:59:47.639Z,2.91
2023-02-27T10:02:30.632Z,2.92
2023-02-27T10:04:57.536Z,2.96
2023-02-27T10:07:27.672Z,3.38
2023-02-27T10:10:05.851Z,3.31
2023-02-27T10:13:05.745Z,3.08
2023-02-27T10:15:32.986Z,3.57
2023-02-27T10:18:13.006Z,3.70
2023-02-27T10:20:48.609Z,3.82
2023-02-27T10:23:17.577Z,3.78
2023-02-27T10:25:46.494Z,4.01
2023-02-27T10:28:15.647Z,4.05
2023-02-27T10:30:39.545Z,4.23
2023-02-27T10:33:12.004Z,4.12
2023-02-27T10:35:39.638Z,4.08
2023-02-27T10:38:06.115Z,4.26
2023-02-27T10:40:31.959Z,4.22
2023-02-27T10:42:58.014Z,4.66
2023-02-27T10:45:21.895Z,4.16
2023-02-27T10:47:46.300Z,4.78
2023-02-27T10:50:30.232Z,4.88
2023-02-27T10:52:56.773Z,4.89
2023-02-27T10:55:25.469Z,4.89
2023-02-27T10:57:49.198Z,4.97
2023-02-27T11:00:42.108Z,5.10
2023-02-27T11:03:06.457Z,4.87
2023-02-27T11:05:35.781Z,5.17
2023-02-27T11:08:15.191Z,5.05
2023-02-27T11:10:38.838Z,4.98
2023-02-27T11:13:05.695Z,5.12
2023-02-27T11:15:32.016Z,5.02
2023-02-27T11:17:55.714Z,5.22
2023-02-27T11:20:39.760Z,5.28
2023-02-27T11:23:11.647Z,5.23
2023-02-27T11:25:36.331Z,5.51
2023-02-27T11:28:24.583Z,5.18
2023-02-27T11:30:59.185Z,5.41
2023-02-27T11:33:23.004Z,5.62
2023-02-27T11:35:57.263Z,5.76
2023-02-27T11:38:25.498Z,6.03
2023-02-27T11:40:54.886Z,5.63
2023-02-27T11:43:22.700Z,5.54
2023-02-27T11:46:04.454Z,6.14
2023-02-27T11:48:40.205Z,6.44
2023-02-27T11:51:26.686Z,6.17
2023-02-27T11:54:13.116Z,6.31
2023-02-27T11:56:39.980Z,6.27
2023-02-27T11:59:13.520Z,5.61
2023-02-27T12:01:46.141Z,5.53
2023-02-27T12:04:19.526Z,5.53
2023-02-27T12:06:52.469Z,5.53
2023-02-27T12:09:35.256Z,5.78
2023-02-27T12:12:01.878Z,5.82
2023-02-27T12:14:33.392Z,5.10
2023-02-27T12:17:05.172Z,5.58
2023-02-27T12:19:34.553Z,5.76
2023-02-27T12:22:04.784Z,5.46
2023-02-27T12:24:37.501Z,5.17
2023-02-27T12:27:14.889Z,5.54
2023-02-27T12:29:45.515Z,5.63
2023-02-27T12:32:19.291Z,5.54
2023-02-27T12:34:47.727Z,5.61
2023-02-27T12:37:15.739Z,5.50
2023-02-27T12:39:40.862Z,5.47
2023-02-27T12:42:45.906Z,5.73
2023-02-27T12:45:57.926Z,5.66
2023-02-27T12:48:36.825Z,5.81
2023-02-27T12:51:42.503Z,5.68
2023-02-27T12:54:22.290Z,5.58
2023-02-27T12:57:02.341Z,5.81
2023-02-27T12:59:45.553Z,5.85
2023-02-27T13:02:30.138Z,5.69
2023-02-27T13:05:04.086Z,5.72
2023-02-27T13:07:35.921Z,5.20
2023-02-27T13:10:05.701Z,5.41
2023-02-27T13:12:37.437Z,5.65
2023-02-27T13:15:07.857Z,5.60
2023-02-27T13:17:41.012Z,5.50
2023-02-27T13:20:17.832Z,5.18
2023-02-27T13:22:51.612Z,5.18
2023-02-27T13:25:19.394Z,5.13
2023-02-27T13:27:47.932Z,5.23
2023-02-27T13:30:23.018Z,5.22
2023-02-27T13:32:55.857Z,5.17
2023-02-27T13:35:28.681Z,5.40
2023-02-27T13:37:56.461Z,5.04
2023-02-27T13:40:36.201Z,5.27
2023-02-27T13:43:04.312Z,5.20
2023-02-27T13:45:59.362Z,5.40
2023-02-27T13:48:56.542Z,5.36
2023-02-27T13:51:50.963Z,4.79
2023-02-27T13:54:25.564Z,4.81
2023-02-27T13:56:52.917Z,4.87
2023-02-27T13:59:23.747Z,5.06
2023-02-27T14:01:55.857Z,5.05
2023-02-27T14:04:21.287Z,4.95
2023-02-27T14:06:47.025Z,5.33
2023-02-27T14:09:15.445Z,5.40
2023-02-27T14:11:40.458Z,5.46
2023-02-27T14:14:10.507Z,5.45
2023-02-27T14:17:07.590Z,5.24
2023-02-27T14:19:57.179Z,5.20
2023-02-27T14:23:14.153Z,4.93
2023-02-27T14:25:40.624Z,5.10
2023-02-27T14:28:05.550Z,4.94
2023-02-27T14:30:40.770Z,5.00
2023-02-27T14:33:37.750Z,4.95
2023-02-27T14:36:07.255Z,4.84
2023-02-27T14:38:31.200Z,4.83
2023-02-27T14:41:33.840Z,5.03
2023-02-27T14:43:59.797Z,5.19
2023-02-27T14:46:29.412Z,5.10
2023-02-27T14:48:58.479Z,5.19
2023-02-27T14:51:23.305Z,4.97
2023-02-27T14:53:46.863Z,4.96
2023-02-27T14:56:20.629Z,4.75
2023-02-27T14:59:03.419Z,4.99
2023-02-27T15:01:36.451Z,4.81
2023-02-27T15:04:00.670Z,4.57
2023-02-27T15:06:33.241Z,4.79
2023-02-27T15:08:58.251Z,4.67
2023-02-27T15:11:24.342Z,4.89
2023-02-27T15:13:51.273Z,4.74
2023-02-27T15:16:38.595Z,4.91
2023-02-27T15:19:14.228Z,5.11
2023-02-27T15:21:42.504Z,5.11
2023-02-27T15:24:08.977Z,4.75
2023-02-27T15:26:37.209Z,5.08
2023-02-27T15:29:00.950Z,4.97
2023-02-27T15:31:28.795Z,4.82
2023-02-27T15:33:54.416Z,4.75
2023-02-27T15:36:24.496Z,4.81
2023-02-27T15:38:48.051Z,4.75
2023-02-27T15:41:14.689Z,4.97
2023-02-27T15:43:38.433Z,4.95
2023-02-27T15:46:02.308Z,4.76
2023-02-27T15:48:26.595Z,4.91
2023-02-27T15:50:56.355Z,5.10
2023-02-27T15:53:22.724Z,5.01
2023-02-27T15:55:51.135Z,5.00
2023-02-27T15:58:25.159Z,4.91
2023-02-27T16:00:49.124Z,5.03
2023-02-27T16:03:23.448Z,4.93
2023-02-27T16:05:54.242Z,4.89
2023-02-27T16:08:21.289Z,4.95
2023-02-27T16:10:47.000Z,4.96
2023-02-27T16:13:33.518Z,4.77
2023-02-27T16:16:03.330Z,4.65
2023-02-27T16:18:34.598Z,4.66
2023-02-27T16:21:13.153Z,4.64
2023-02-27T16:23:36.839Z,4.67
2023-02-27T16:26:08.193Z,4.60
2023-02-27T16:28:34.706Z,4.56
2023-02-27T16:30:58.225Z,4.54
2023-02-27T16:33:24.746Z,4.50
2023-02-27T16:35:48.495Z,4.47
2023-02-27T16:38:13.605Z,4.40
2023-02-27T16:40:37.644Z,4.38
2023-02-27T16:43:01.450Z,4.34
2023-02-27T16:45:28.261Z,4.30
2023-02-27T16:47:53.867Z,4.19
2023-02-27T16:50:22.790Z,4.18
2023-02-27T16:52:46.354Z,4.13
2023-02-27T16:55:11.814Z,4.12
2023-02-27T16:57:35.685Z,4.03
2023-02-27T16:59:59.197Z,4.02
2023-02-27T17:02:22.732Z,3.97
2023-02-27T17:04:48.061Z,3.91
2023-02-27T17:07:16.785Z,3.86
2023-02-27T17:09:40.296Z,3.81
2023-02-27T17:12:05.689Z,3.79
2023-02-27T17:14:29.510Z,3.77
2023-02-27T17:16:53.112Z,3.71
2023-02-27T17:19:17.222Z,3.67
2023-02-27T17:21:40.813Z,3.65
2023-02-27T17:24:06.200Z,3.58
2023-02-27T17:26:31.191Z,3.50
2023-02-27T17:28:57.776Z,3.46
2023-02-27T17:31:23.088Z,3.37
2023-02-27T17:33:46.741Z,3.37
2023-02-27T17:36:13.724Z,3.30
2023-02-27T17:38:37.472Z,3.27
2023-02-27T17:41:01.121Z,3.21
2023-02-27T17:43:24.681Z,3.16
2023-02-27T17:45:49.756Z,3.09
2023-02-27T17:48:13.710Z,3.09
2023-02-27T17:50:37.317Z,3.01
2023-02-27T17:53:00.817Z,2.96
2023-02-27T17:55:24.438Z,2.94
2023-02-27T17:57:48.114Z,2.90
2023-02-27T18:00:16.203Z,2.82
2023-02-27T18:02:41.272Z,2.77
2023-02-27T18:05:06.530Z,2.71
2023-02-27T18:07:30.068Z,2.65
2023-02-27T18:09:53.721Z,2.57
2023-02-27T18:12:17.255Z,2.41
2023-02-27T18:14:40.806Z,2.35
2023-02-27T18:17:06.819Z,2.27
2023-02-27T18:19:32.634Z,2.20
2023-02-27T18:21:56.206Z,2.18
2023-02-27T18:24:19.928Z,2.12
2023-02-27T18:26:43.966Z,2.03
2023-02-27T18:29:10.819Z,1.93
2023-02-27T18:31:36.747Z,1.83
2023-02-27T18:34:00.700Z,1.74
2023-02-27T18:36:26.374Z,1.70
2023-02-27T18:38:50.219Z,1.62
2023-02-27T18:41:14.690Z,1.52
2023-02-27T18:43:38.333Z,1.50
2023-02-27T18:46:02.087Z,1.44
2023-02-27T18:48:25.864Z,1.35
2023-02-27T18:50:49.430Z,1.28
2023-02-27T18:53:14.518Z,1.18
2023-02-27T18:55:38.042Z,1.15
2023-02-27T18:58:01.618Z,1.09
2023-02-27T19:00:25.620Z,1.13
2023-02-27T19:02:49.278Z,0.96
2023-02-27T19:05:15.342Z,1.01
2023-02-27T19:07:39.522Z,0.95
2023-02-27T19:10:07.361Z,0.97
2023-02-27T19:12:30.976Z,0.90
2023-02-27T19:14:55.386Z,0.92
2023-02-27T19:17:19.061Z,0.89
2023-02-27T19:19:42.783Z,0.88
2023-02-27T19:22:06.496Z,0.86
2023-02-27T19:24:30.187Z,0.81
2023-02-27T19:26:55.192Z,0.81
2023-02-27T19:29:19.159Z,0.78
2023-02-27T19:31:44.374Z,0.77
2023-02-27T19:34:08.043Z,0.78
2023-02-27T19:36:32.600Z,0.74
2023-02-27T19:38:57.361Z,0.70
2023-02-27T19:41:22.047Z,0.70
2023-02-27T19:43:47.943Z,0.65
2023-02-27T19:46:13.738Z,0.62
2023-02-27T19:48:38.365Z,0.61
2023-02-27T19:51:04.464Z,0.54
2023-02-27T19:53:28.055Z,0.56
2023-02-27T19:56:00.296Z,0.50
2023-02-27T19:58:23.955Z,0.59
2023-02-27T20:00:48.899Z,0.52
2023-02-27T20:03:12.528Z,0.50
2023-02-27T20:05:39.430Z,0.44
2023-02-27T20:08:03.053Z,0.46
2023-02-27T20:10:26.566Z,0.43
2023-02-27T20:12:50.119Z,0.43
2023-02-27T20:15:14.300Z,0.38
2023-02-27T20:17:39.745Z,0.37
2023-02-27T20:20:04.901Z,0.41
2023-02-27T20:22:28.529Z,0.41
2023-02-27T20:24:52.035Z,0.37
2023-02-27T20:27:15.676Z,0.38
2023-02-27T20:29:40.419Z,0.43
2023-02-27T20:32:04.241Z,0.41
2023-02-27T20:34:29.482Z,0.39
2023-02-27T20:36:54.342Z,0.34
2023-02-27T20:39:18.629Z,0.33
2023-02-27T20:41:42.646Z,0.34
2023-02-27T20:44:08.197Z,0.37
2023-02-27T20:46:32.631Z,0.33
2023-02-27T20:48:57.800Z,0.32
2023-02-27T20:51:25.043Z,0.30
2023-02-27T20:53:52.292Z,0.26
2023-02-27T20:56:16.439Z,0.23
2023-02-27T20:58:40.930Z,0.31
2023-02-27T21:01:09.193Z,0.33
2023-02-27T21:03:38.608Z,0.30
2023-02-27T21:06:02.517Z,0.27
2023-02-27T21:08:28.028Z,0.30
2023-02-27T21:10:51.869Z,0.26
2023-02-27T21:13:15.399Z,0.33
2023-02-27T21:15:39.706Z,0.26
2023-02-27T21:18:03.257Z,0.33
2023-02-27T21:20:26.837Z,0.35
2023-02-27T21:22:50.393Z,0.34
2023-02-27T21:25:15.401Z,0.39
2023-02-27T21:27:39.022Z,0.40
2023-02-27T21:30:02.642Z,0.45
2023-02-27T21:32:26.203Z,0.41
2023-02-27T21:34:49.865Z,0.36
2023-02-27T21:37:13.418Z,0.38
2023-02-27T21:39:37.102Z,0.42
2023-02-27T21:42:02.062Z,0.44
2023-02-27T21:44:26.117Z,0.49
2023-02-27T21:46:49.897Z,0.60
2023-02-27T21:49:18.518Z,0.46
2023-02-27T21:51:42.570Z,0.54
2023-02-27T21:54:06.773Z,0.49
2023-02-27T21:56:31.150Z,0.60
2023-02-27T21:58:56.558Z,0.63
2023-02-27T22:01:23.303Z,0.60
2023-02-27T22:03:48.608Z,0.55
2023-02-27T22:06:13.070Z,0.55
2023-02-27T22:08:37.079Z,0.55
2023-02-27T22:11:01.478Z,0.51
2023-02-27T22:13:25.710Z,0.64
2023-02-27T22:15:50.716Z,0.63
2023-02-27T22:18:14.347Z,0.69
2023-02-27T22:20:40.756Z,0.56
2023-02-27T22:23:04.699Z,0.56
2023-02-27T22:25:28.391Z,0.48
2023-02-27T22:27:52.354Z,0.47
2023-02-27T22:30:16.357Z,0.34
2023-02-27T22:32:42.082Z,0.46
2023-02-27T22:35:07.064Z,0.53
2023-02-27T22:37:30.612Z,0.49
2023-02-27T22:39:54.138Z,0.51
2023-02-27T22:42:17.741Z,0.47
2023-02-27T22:44:41.279Z,0.52
2023-02-27T22:47:04.931Z,0.46
2023-02-27T22:49:29.968Z,0.50
2023-02-27T22:51:53.880Z,0.51
2023-02-27T22:54:18.634Z,0.48
2023-02-27T22:56:42.629Z,0.56
2023-02-27T22:59:07.950Z,0.31
2023-02-27T23:01:34.110Z,0.34
2023-02-27T23:04:00.024Z,0.46
2023-02-27T23:06:28.460Z,0.50
2023-02-27T23:08:52.119Z,0.36
2023-02-27T23:11:18.025Z,0.43
2023-02-27T23:13:41.797Z,0.47
2023-02-27T23:16:11.493Z,0.42
2023-02-27T23:18:35.156Z,0.23
2023-02-27T23:20:58.685Z,0.34
2023-02-27T23:23:24.002Z,0.38
2023-02-27T23:25:47.586Z,0.48
2023-02-27T23:28:12.104Z,0.48
2023-02-27T23:30:36.305Z,0.43
2023-02-27T23:33:00.111Z,0.43
2023-02-27T23:35:24.766Z,0.39
2023-02-27T23:37:48.346Z,0.44
2023-02-27T23:40:14.509Z,0.34
2023-02-27T23:42:55.421Z,0.31
2023-02-27T23:45:25.338Z,0.42
2023-02-27T23:47:51.878Z,0.41
2023-02-27T23:50:15.523Z,0.33
2023-02-27T23:52:39.075Z,0.30
2023-02-27T23:55:02.701Z,0.29
2023-02-27T23:57:28.203Z,0.19
2023-02-27T23:59:51.829Z,0.15
